Time;durP1;ratioP1;P1;durP2;ratioP2;P2;SDS_P1;SDS_P2;PMS_P1;PMS_P2;Temp;Humidity;BMP_temperature;BMP_pressure;BME280_temperature;BME280_humidity;BME280_pressure;Samples;Min_cycle;Max_cycle;Signal;HPM_P1;HPM_P2
2021/06/14 00:01:40;;;;;;;1.60;1.20;;;;;;;13.78;100.00;94679.00;10527173;28;20028;-74
2021/06/14 00:06:40;;;;;;;2.85;1.20;;;;;;;13.80;100.00;94678.72;10526519;28;20056;-74
2021/06/14 00:11:41;;;;;;;2.83;1.23;;;;;;;13.85;100.00;94668.63;10526003;28;20475;-74
2021/06/14 00:16:41;;;;;;;1.10;1.00;;;;;;;13.73;100.00;94668.31;10526960;28;20028;-74
2021/06/14 00:21:42;;;;;;;1.63;1.38;;;;;;;13.78;100.00;94673.63;10526376;28;20035;-74
2021/06/14 00:26:42;;;;;;;6.10;1.83;;;;;;;13.73;100.00;94668.31;10525824;28;20024;-75
2021/06/14 00:31:42;;;;;;;5.33;1.30;;;;;;;13.73;100.00;94673.72;10526061;28;20169;-74
2021/06/14 00:36:43;;;;;;;5.00;1.40;;;;;;;13.89;100.00;94670.75;10525438;28;20028;-74
2021/06/14 00:41:43;;;;;;;1.93;1.40;;;;;;;13.98;100.00;94668.97;10525098;28;20046;-74
2021/06/14 00:46:44;;;;;;;4.00;1.67;;;;;;;13.89;100.00;94670.75;10523903;28;20098;-74
2021/06/14 00:51:44;;;;;;;4.03;1.37;;;;;;;14.02;100.00;94662.69;10525561;28;20032;-74
2021/06/14 00:56:44;;;;;;;2.30;2.10;;;;;;;14.12;100.00;94664.41;10525072;28;20269;-74
2021/06/14 01:01:45;;;;;;;3.13;1.47;;;;;;;14.06;100.00;94660.19;10522997;28;20053;-74
2021/06/14 01:06:49;;;;;;;6.70;1.90;;;;;;;14.06;100.00;94656.69;10524969;28;20282;-74
2021/06/14 01:12:02;;;;;;;5.22;1.48;;;;;;;13.84;100.00;94663.53;10524411;28;20054;-74
2021/06/14 01:17:42;;;;;;;2.25;1.63;;;;;;;13.76;100.00;94654.22;10524318;28;20897;-73
2021/06/14 01:23:13;;;;;;;2.08;1.50;;;;;;;13.82;100.00;94652.22;10513619;28;20074;-74
2021/06/14 01:28:15;;;;;;;5.68;1.98;;;;;;;13.75;100.00;94649.91;10523693;28;20032;-74
2021/06/14 01:33:19;;;;;;;3.88;1.65;;;;;;;13.83;100.00;94646.53;10523987;28;20059;-74
2021/06/14 01:38:22;;;;;;;7.72;1.80;;;;;;;13.75;100.00;94638.31;10524541;28;20031;-73
2021/06/14 01:43:26;;;;;;;2.00;1.58;;;;;;;13.81;100.00;94643.34;10523641;28;20039;-73
2021/06/14 01:48:27;;;;;;;7.30;2.20;;;;;;;13.84;100.00;94647.31;10523398;28;20039;-74
2021/06/14 01:53:28;;;;;;;12.23;2.30;;;;;;;13.89;100.00;94643.75;10523962;28;20035;-74
2021/06/14 01:58:30;;;;;;;10.40;1.75;;;;;;;13.90;100.00;94648.84;10523735;28;20048;-73
2021/06/14 02:03:32;;;;;;;7.85;1.73;;;;;;;13.90;100.00;94643.44;10524480;28;20058;-74
2021/06/14 02:08:33;;;;;;;4.05;1.73;;;;;;;13.84;100.00;94645.44;10523515;28;20028;-74
2021/06/14 02:13:34;;;;;;;3.37;1.90;;;;;;;13.78;100.00;94646.59;10525314;28;20678;-74
2021/06/14 02:18:34;;;;;;;3.45;2.28;;;;;;;13.76;100.00;94646.09;10531555;28;20024;-74
2021/06/14 02:23:35;;;;;;;6.13;2.22;;;;;;;13.78;100.00;94653.91;10530130;28;20588;-74
2021/06/14 02:28:36;;;;;;;5.75;2.25;;;;;;;13.68;100.00;94652.97;10530882;28;20027;-74
2021/06/14 02:33:36;;;;;;;3.25;1.70;;;;;;;13.62;100.00;94656.06;10530144;28;20044;-74
2021/06/14 02:38:39;;;;;;;2.83;2.25;;;;;;;13.38;100.00;94656.16;10529863;28;20086;-74
2021/06/14 02:43:40;;;;;;;2.67;1.90;;;;;;;13.40;100.00;94649.38;10529450;28;20035;-74
2021/06/14 02:48:45;;;;;;;12.90;2.42;;;;;;;13.25;100.00;94652.25;10529207;28;20040;-74
2021/06/14 02:54:03;;;;;;;4.43;2.45;;;;;;;13.21;100.00;94652.03;10528929;28;20031;-74
2021/06/14 02:59:06;;;;;;;4.70;2.33;;;;;;;13.01;100.00;94653.13;10540467;28;20039;-74
2021/06/14 03:04:07;;;;;;;7.88;2.53;;;;;;;12.85;100.00;94649.00;10528785;28;20440;-75
2021/06/14 03:09:08;;;;;;;2.75;1.98;;;;;;;12.95;100.00;94660.47;10528578;28;20020;-74
2021/06/14 03:14:11;;;;;;;3.92;2.30;;;;;;;13.00;100.00;94648.81;10525109;28;20025;-74
2021/06/14 03:19:13;;;;;;;4.70;2.30;;;;;;;12.80;100.00;94656.06;10507286;28;20123;-74
2021/06/14 03:24:16;;;;;;;12.85;2.42;;;;;;;12.91;100.00;94661.34;10524324;28;20024;-73
2021/06/14 03:29:19;;;;;;;4.13;2.55;;;;;;;12.91;100.00;94659.44;10528622;28;20804;-74
2021/06/14 03:34:21;;;;;;;4.18;2.75;;;;;;;13.00;100.00;94659.59;10527219;28;20056;-74
2021/06/14 03:39:23;;;;;;;5.55;2.85;;;;;;;13.22;100.00;94655.53;10531551;28;20024;-74
2021/06/14 03:44:25;;;;;;;6.57;2.80;;;;;;;13.41;100.00;94659.06;10526396;28;20039;-74
2021/06/14 03:49:25;;;;;;;4.38;2.50;;;;;;;13.59;100.00;94651.22;10527101;28;20032;-73
2021/06/14 03:54:26;;;;;;;6.30;2.20;;;;;;;13.80;100.00;94651.69;10527282;28;20510;-73
2021/06/14 03:59:26;;;;;;;6.15;2.60;;;;;;;13.73;100.00;94652.09;10527098;28;20024;-73
2021/06/14 04:09:36;;;;;;;8.20;2.90;;;;;;;13.18;100.00;94638.34;10526161;28;20028;-73
2021/06/14 04:14:38;;;;;;;9.77;2.72;;;;;;;13.23;100.00;94635.53;10526535;28;20024;-74
2021/06/14 04:19:38;;;;;;;3.95;2.72;;;;;;;13.22;100.00;94655.53;10525230;28;20024;-74
2021/06/14 04:24:39;;;;;;;4.07;2.50;;;;;;;13.24;100.00;94650.66;10526496;28;20032;-74
2021/06/14 04:29:39;;;;;;;8.23;3.13;;;;;;;13.82;100.00;94661.13;10523628;28;20031;-74
2021/06/14 04:34:40;;;;;;;10.53;2.67;;;;;;;14.91;100.00;94654.56;10525585;28;20138;-73
2021/06/14 04:39:40;;;;;;;3.40;1.70;;;;;;;15.44;100.00;94642.31;10524573;28;20027;-74
2021/06/14 04:44:40;;;;;;;2.80;2.00;;;;;;;16.02;100.00;94653.47;10524435;28;20028;-73
2021/06/14 04:49:41;;;;;;;3.80;1.93;;;;;;;16.54;100.00;94655.63;10524886;28;20052;-74
2021/06/14 04:54:41;;;;;;;10.20;3.10;;;;;;;16.75;95.77;94645.81;10524572;28;20035;-73
2021/06/14 04:59:42;;;;;;;6.03;2.53;;;;;;;17.06;93.51;94639.53;10523204;28;20584;-74
2021/06/14 05:04:42;;;;;;;7.00;1.83;;;;;;;17.49;89.34;94643.41;10522910;28;20055;-74
2021/06/14 05:09:42;;;;;;;7.40;2.60;;;;;;;17.73;87.05;94645.66;10513997;28;20857;-73
2021/06/14 05:14:43;;;;;;;4.27;1.90;;;;;;;18.15;85.91;94642.41;10522948;28;20620;-73
2021/06/14 05:19:44;;;;;;;7.13;1.83;;;;;;;18.54;78.80;94642.47;10522993;28;20055;-73
2021/06/14 05:24:44;;;;;;;12.75;2.47;;;;;;;18.26;79.63;94643.66;10522740;28;20277;-74
2021/06/14 05:29:45;;;;;;;5.80;1.83;;;;;;;17.82;82.44;94639.41;10522599;28;20039;-73
2021/06/14 05:34:45;;;;;;;3.70;1.93;;;;;;;17.86;85.12;94638.47;10523012;28;20052;-73
2021/06/14 05:39:46;;;;;;;4.43;2.27;;;;;;;18.77;80.75;94632.13;10523952;28;20056;-73
2021/06/14 05:44:46;;;;;;;12.20;2.28;;;;;;;19.44;74.16;94638.66;10523489;28;20590;-73
2021/06/14 05:49:46;;;;;;;2.67;1.33;;;;;;;19.79;69.24;94634.84;10526062;28;20429;-73
2021/06/14 05:54:47;;;;;;;2.53;1.37;;;;;;;20.52;61.01;94627.25;10530343;28;20421;-73
2021/06/14 05:59:47;;;;;;;4.43;2.20;;;;;;;20.96;58.57;94624.81;10530109;28;20016;-73
2021/06/14 06:04:47;;;;;;;3.97;1.27;;;;;;;21.89;52.93;94617.78;10530042;28;20032;-74
2021/06/14 06:09:48;;;;;;;3.50;1.70;;;;;;;22.28;51.81;94618.03;10531296;28;20039;-74
2021/06/14 06:14:48;;;;;;;1.80;1.13;;;;;;;21.72;52.07;94618.88;10530381;28;20028;-74
2021/06/14 06:19:49;;;;;;;2.00;1.35;;;;;;;22.82;50.29;94631.19;10530432;28;20020;-73
2021/06/14 06:24:49;;;;;;;5.10;1.48;;;;;;;23.35;48.15;94621.84;10504869;28;20032;-73
2021/06/14 06:29:50;;;;;;;6.60;1.20;;;;;;;23.14;46.34;94617.47;10544586;28;20020;-74
2021/06/14 06:34:50;;;;;;;6.35;1.40;;;;;;;23.61;46.61;94620.44;10527283;28;20095;-72
2021/06/14 06:39:50;;;;;;;3.73;1.37;;;;;;;23.06;43.76;94623.13;10528652;28;20031;-73
2021/06/14 06:44:52;;;;;;;9.20;3.63;;;;;;;22.29;46.61;94616.91;10528514;28;20036;-72
2021/06/14 06:49:52;;;;;;;3.70;1.60;;;;;;;21.62;46.34;94620.94;10521100;28;20123;-72
2021/06/14 06:54:52;;;;;;;2.43;1.23;;;;;;;20.53;51.34;94615.97;10525987;28;20027;-74
2021/06/14 06:59:53;;;;;;;2.23;1.50;;;;;;;19.68;55.40;94620.03;10499253;28;20036;-74
2021/06/14 07:04:54;;;;;;;6.03;1.40;;;;;;;19.43;62.23;94620.69;10527086;28;20400;-74
2021/06/14 07:09:55;;;;;;;7.97;2.05;;;;;;;19.56;60.13;94613.38;10527942;28;20523;-74
2021/06/14 07:14:55;;;;;;;2.63;1.50;;;;;;;19.74;55.96;94618.69;10527605;28;20032;-74
2021/06/14 07:19:55;;;;;;;9.93;1.60;;;;;;;20.43;51.52;94616.44;10527479;28;20823;-74
2021/06/14 07:24:56;;;;;;;6.03;2.50;;;;;;;21.27;53.85;94610.50;10527223;28;20032;-74
2021/06/14 07:29:56;;;;;;;3.03;1.10;;;;;;;23.20;44.00;94612.50;10528841;28;20293;-73
2021/06/14 07:34:57;;;;;;;4.33;1.20;;;;;;;24.62;40.91;94611.44;10527897;28;20052;-73
2021/06/14 07:39:57;;;;;;;3.33;1.13;;;;;;;24.80;39.10;94592.50;10528752;28;20024;-73
2021/06/14 07:44:57;;;;;;;2.60;1.05;;;;;;;24.62;38.29;94582.00;10526509;28;20020;-73
2021/06/14 07:49:58;;;;;;;1.73;1.03;;;;;;;22.08;41.93;94596.03;10528200;28;20039;-73
2021/06/14 07:54:58;;;;;;;4.30;1.40;;;;;;;20.44;46.69;94590.69;10528121;28;20418;-73
2021/06/14 07:59:59;;;;;;;5.90;1.70;;;;;;;20.32;47.38;94599.69;10527540;28;20270;-73
2021/06/14 08:05:02;;;;;;;5.30;1.30;;;;;;;19.19;45.69;94602.28;10527995;28;20031;-72
2021/06/14 08:10:06;;;;;;;5.82;1.27;;;;;;;18.88;49.44;94608.06;10528042;28;20025;-73
2021/06/14 08:15:07;;;;;;;2.72;1.40;;;;;;;18.68;47.26;94612.31;10525984;28;20024;-73
2021/06/14 08:25:27;;;;;;;4.45;1.33;;;;;;;18.20;54.70;94625.16;10527709;28;20178;-73
2021/06/14 08:30:28;;;;;;;7.95;2.83;;;;;;;18.40;55.06;94629.06;10526757;28;20032;-73
2021/06/14 08:35:29;;;;;;;6.40;1.90;;;;;;;17.85;69.23;94631.41;10523940;28;20048;-73
2021/06/14 08:40:32;;;;;;;5.57;2.00;;;;;;;16.46;100.00;94626.56;10524905;28;20059;-73
2021/06/14 08:45:34;;;;;;;3.25;2.00;;;;;;;16.34;100.00;94638.78;10526538;28;20024;-73
2021/06/14 08:50:36;;;;;;;7.90;2.53;;;;;;;16.25;100.00;94639.88;10525200;28;20512;-73
2021/06/14 08:55:37;;;;;;;3.38;2.22;;;;;;;15.89;100.00;94642.38;10526009;28;20023;-73
2021/06/14 09:00:37;;;;;;;3.72;2.67;;;;;;;15.69;100.00;94646.34;10526947;28;20020;-73
2021/06/14 09:05:38;;;;;;;4.43;2.75;;;;;;;15.25;100.00;94638.97;10526084;28;20085;-74
2021/06/14 09:10:39;;;;;;;3.42;2.20;;;;;;;15.47;100.00;94636.28;10524731;28;20093;-74
2021/06/14 09:15:42;;;;;;;4.57;2.10;;;;;;;17.47;100.00;94621.22;10525455;28;20039;-74
2021/06/14 09:21:16;;;;;;;7.40;1.80;;;;;;;19.58;98.15;94615.78;10525954;28;20534;-74
2021/06/14 09:26:43;;;;;;;6.82;1.80;;;;;;;23.44;78.60;94595.00;10481455;28;20044;-74
2021/06/14 09:31:49;;;;;;;1.48;0.75;;;;;;;25.38;51.42;94591.41;10506363;28;20407;-74
2021/06/14 09:36:57;;;;;;;4.97;1.33;;;;;;;23.80;48.86;94603.97;10518057;28;20032;-73
2021/06/14 09:41:58;;;;;;;9.45;1.73;;;;;;;21.18;67.96;94615.31;10510334;28;20574;-74
2021/06/14 09:47:08;;;;;;;6.57;2.60;;;;;;;16.46;100.00;94662.59;10513894;28;20024;-73
2021/06/14 09:52:21;;;;;;;6.63;2.92;;;;;;;14.50;100.00;94644.53;10512264;28;20036;-73
2021/06/14 09:57:27;;;;;;;5.53;2.30;;;;;;;16.16;100.00;94637.91;10510167;28;20021;-73
2021/06/14 10:02:33;;;;;;;8.45;2.15;;;;;;;15.30;100.00;94636.16;10511529;28;20035;-73
2021/06/14 10:07:44;;;;;;;4.72;2.55;;;;;;;15.43;100.00;94650.75;10509737;28;20063;-73
2021/06/14 10:12:50;;;;;;;5.15;2.35;;;;;;;15.07;100.00;94656.94;10508421;28;20121;-73
2021/06/14 10:17:50;;;;;;;4.93;2.35;;;;;;;14.19;100.00;94664.84;10513121;28;20024;-73
2021/06/14 10:22:53;;;;;;;4.63;3.03;;;;;;;13.75;100.00;94670.72;10508723;28;20395;-74
2021/06/14 10:27:53;;;;;;;4.85;2.83;;;;;;;13.50;100.00;94651.91;10510048;28;20039;-74
2021/06/14 10:32:55;;;;;;;6.13;2.45;;;;;;;14.77;100.00;94649.16;10508964;28;20059;-74
2021/06/14 10:37:56;;;;;;;3.03;2.28;;;;;;;15.44;100.00;94644.25;10514209;28;20040;-74
2021/06/14 10:42:57;;;;;;;4.53;2.08;;;;;;;16.04;100.00;94634.97;10499905;28;20035;-73
2021/06/14 10:47:58;;;;;;;5.22;2.53;;;;;;;15.64;100.00;94626.69;10530103;28;20039;-73
2021/06/14 10:52:59;;;;;;;5.43;2.13;;;;;;;15.21;100.00;94626.03;10531635;28;20024;-73
2021/06/14 10:58:04;;;;;;;4.20;2.65;;;;;;;14.68;100.00;94615.81;10529707;28;20020;-73
2021/06/14 11:03:08;;;;;;;3.25;2.75;;;;;;;14.36;100.00;94617.50;10528493;28;20081;-73
2021/06/14 11:08:22;;;;;;;4.68;2.85;;;;;;;14.23;100.00;94610.16;10529748;28;20031;-73
2021/06/14 11:13:22;;;;;;;4.78;2.63;;;;;;;14.60;100.00;94619.19;10490622;28;20029;-73
2021/06/14 11:18:30;;;;;;;8.50;5.60;;;;;;;14.78;100.00;94609.41;10507812;28;20404;-74
2021/06/14 11:23:31;;;;;;;7.28;2.97;;;;;;;14.86;100.00;94603.25;10504174;28;20020;-73
2021/06/14 11:28:44;;;;;;;3.95;2.60;;;;;;;14.99;100.00;94596.22;10507657;28;20032;-73
2021/06/14 11:33:47;;;;;;;7.53;3.13;;;;;;;14.90;100.00;94617.78;10504846;28;20543;-73
2021/06/14 11:38:49;;;;;;;6.82;3.30;;;;;;;15.49;100.00;94604.28;10507264;28;20019;-73
2021/06/14 11:44:10;;;;;;;5.88;3.65;;;;;;;15.90;100.00;94583.53;10505288;28;20089;-74
2021/06/14 11:49:11;;;;;;;5.28;2.50;;;;;;;16.61;100.00;94574.59;10514212;28;20030;-73
2021/06/14 11:54:15;;;;;;;5.72;3.10;;;;;;;16.56;100.00;94563.88;10529033;28;20038;-73
2021/06/14 11:59:16;;;;;;;2.80;2.42;;;;;;;16.18;100.00;94559.75;10535982;28;20062;-73
2021/06/14 12:04:22;;;;;;;7.45;3.42;;;;;;;16.35;100.00;94556.31;10528691;28;20103;-73
2021/06/14 12:09:26;;;;;;;3.97;2.67;;;;;;;16.25;100.00;94550.38;10529145;28;20181;-73
2021/06/14 12:14:28;;;;;;;5.40;2.40;;;;;;;16.67;100.00;94539.97;10528898;28;20028;-73
2021/06/14 12:19:34;;;;;;;10.90;2.60;;;;;;;16.79;100.00;94536.63;10528852;28;20031;-73
2021/06/14 12:24:36;;;;;;;14.25;3.35;;;;;;;17.07;100.00;94542.59;10527531;28;20012;-74
2021/06/14 12:29:38;;;;;;;16.52;2.17;;;;;;;17.38;100.00;94536.97;10528372;28;20483;-73
2021/06/14 12:34:42;;;;;;;8.63;2.17;;;;;;;17.63;100.00;94525.63;10527317;28;20054;-73
2021/06/14 12:39:53;;;;;;;3.72;2.65;;;;;;;18.12;100.00;94520.69;10527534;28;20103;-73
2021/06/14 12:45:00;;;;;;;7.65;2.72;;;;;;;18.16;100.00;94509.97;10527166;28;20550;-73
2021/06/14 12:50:01;;;;;;;8.57;2.33;;;;;;;18.22;100.00;94500.47;10524149;28;20027;-74
2021/06/14 12:55:02;;;;;;;6.68;2.28;;;;;;;18.07;100.00;94490.94;10524704;28;20503;-73
2021/06/14 13:00:10;;;;;;;3.25;1.95;;;;;;;17.93;100.00;94481.09;10525895;28;20024;-73
2021/06/14 13:05:15;;;;;;;6.53;2.13;;;;;;;18.33;95.19;94474.50;10525934;28;20448;-73
2021/06/14 13:10:16;;;;;;;4.63;1.95;;;;;;;19.03;81.29;94503.22;10526522;28;20044;-73
2021/06/14 13:15:17;;;;;;;9.55;1.33;;;;;;;18.90;66.28;94519.47;10526438;28;20028;-74
2021/06/14 13:20:32;;;;;;;3.08;1.33;;;;;;;18.13;78.48;94535.09;10524755;28;20015;-73
2021/06/14 13:25:36;;;;;;;12.32;1.92;;;;;;;17.43;100.00;94542.25;10517575;28;20039;-73
2021/06/14 13:30:47;;;;;;;3.70;1.52;;;;;;;16.20;100.00;94560.25;10505027;28;20032;-73
2021/06/14 13:36:01;;;;;;;9.07;1.60;;;;;;;14.76;100.00;94577.22;10486820;28;20052;-73
2021/06/14 13:41:04;;;;;;;7.82;1.90;;;;;;;13.76;100.00;94548.88;10487214;28;20410;-73
2021/06/14 13:46:04;;;;;;;7.70;2.35;;;;;;;12.93;100.00;94546.66;10523945;28;20031;-72
2021/06/14 13:51:11;;;;;;;5.13;1.73;;;;;;;12.54;100.00;94544.25;10524153;28;20039;-72
2021/06/14 13:56:13;;;;;;;4.28;3.00;;;;;;;11.78;100.00;94550.22;10524238;28;20093;-73
2021/06/14 14:01:17;;;;;;;5.35;2.22;;;;;;;11.24;100.00;94579.75;10524684;28;20028;-74
2021/06/14 14:06:18;;;;;;;4.30;2.00;;;;;;;10.94;100.00;94564.66;10523930;28;20036;-73
2021/06/14 14:11:19;;;;;;;4.40;2.57;;;;;;;10.85;100.00;94545.59;10529052;28;20406;-73
2021/06/14 14:16:19;;;;;;;8.30;2.50;;;;;;;10.84;100.00;94551.25;10531764;28;20080;-73
2021/06/14 14:21:20;;;;;;;4.63;1.90;;;;;;;10.78;100.00;94548.59;10531682;28;20024;-73
2021/06/14 14:26:21;;;;;;;2.08;1.35;;;;;;;10.84;100.00;94535.97;10532091;28;20067;-73
2021/06/14 14:31:22;;;;;;;2.78;1.63;;;;;;;10.93;100.00;94536.16;10531516;28;20064;-73
2021/06/14 14:36:23;;;;;;;2.72;1.60;;;;;;;11.02;100.00;94534.47;10530440;28;20047;-73
2021/06/14 14:41:24;;;;;;;3.58;2.13;;;;;;;11.10;100.00;94536.56;10521942;28;20033;-74
2021/06/14 14:46:27;;;;;;;3.67;2.50;;;;;;;11.21;100.00;94531.09;10519348;28;20090;-74
2021/06/14 14:51:30;;;;;;;4.55;2.67;;;;;;;11.34;100.00;94513.50;10526631;28;20031;-73
2021/06/14 14:56:31;;;;;;;4.35;2.53;;;;;;;11.60;100.00;94527.53;10529803;28;20035;-74
2021/06/14 15:01:34;;;;;;;3.83;2.58;;;;;;;11.75;100.00;94526.56;10530017;28;20491;-74
2021/06/14 15:06:36;;;;;;;6.05;2.60;;;;;;;11.80;100.00;94515.72;10528819;28;20024;-74
2021/06/14 15:11:36;;;;;;;6.88;3.17;;;;;;;12.05;100.00;94517.34;10523900;28;20046;-74
2021/06/14 15:16:37;;;;;;;5.88;2.58;;;;;;;12.29;100.00;94516.53;10489474;28;20020;-74
2021/06/14 15:21:37;;;;;;;11.02;3.00;;;;;;;12.48;100.00;94497.69;10488001;28;20032;-74
2021/06/14 15:26:38;;;;;;;5.20;3.28;;;;;;;12.72;100.00;94496.81;10488020;28;20028;-74
2021/06/14 15:31:39;;;;;;;9.77;3.20;;;;;;;12.95;100.00;94498.63;10488008;28;20064;-74
2021/06/14 15:36:39;;;;;;;5.78;3.05;;;;;;;13.40;100.00;94497.41;10509604;28;20027;-74
2021/06/14 15:41:40;;;;;;;6.68;3.63;;;;;;;13.57;100.00;94497.63;10525356;28;20035;-74
2021/06/14 15:46:42;;;;;;;7.32;4.13;;;;;;;13.75;100.00;94504.03;10507220;28;20028;-74
2021/06/14 15:51:43;;;;;;;9.80;4.10;;;;;;;13.85;100.00;94508.47;10486815;28;20060;-74
2021/06/14 15:56:43;;;;;;;7.28;3.13;;;;;;;13.85;100.00;94509.25;10489988;28;20501;-74
2021/06/14 16:01:43;;;;;;;5.47;3.07;;;;;;;13.72;100.00;94512.75;10526908;28;20028;-72
2021/06/14 16:06:44;;;;;;;7.50;3.25;;;;;;;13.72;100.00;94512.75;10527160;28;20160;-73
2021/06/14 16:11:44;;;;;;;6.82;3.60;;;;;;;13.67;100.00;94510.13;10526318;28;20479;-73
2021/06/14 16:16:45;;;;;;;12.63;4.00;;;;;;;13.74;100.00;94509.75;10497176;28;20051;-73
2021/06/14 16:21:45;;;;;;;6.57;2.97;;;;;;;13.55;100.00;94516.03;10464326;28;20039;-73
2021/06/14 16:26:46;;;;;;;11.43;4.55;;;;;;;13.45;100.00;94525.13;10489157;28;20121;-73
2021/06/14 16:31:46;;;;;;;8.48;3.58;;;;;;;13.49;100.00;94531.53;10488671;28;20063;-74
2021/06/14 16:36:48;;;;;;;9.38;3.78;;;;;;;13.50;100.00;94526.91;10489685;28;20040;-73
2021/06/14 16:41:48;;;;;;;8.40;3.45;;;;;;;13.47;100.00;94535.59;10488350;28;20043;-73
2021/06/14 16:46:49;;;;;;;5.53;3.97;;;;;;;13.40;100.00;94538.69;10467887;28;20028;-72
2021/06/14 16:51:50;;;;;;;9.70;4.60;;;;;;;13.47;100.00;94541.81;10468663;28;20032;-72
2021/06/14 16:56:51;;;;;;;8.30;4.75;;;;;;;13.60;100.00;94548.31;10466783;28;20024;-72
2021/06/14 17:01:54;;;;;;;8.80;4.38;;;;;;;13.53;100.00;94541.72;10467896;28;20036;-72
2021/06/14 17:06:55;;;;;;;11.70;4.28;;;;;;;13.56;100.00;94541.13;10466675;28;20041;-72
2021/06/14 17:11:57;;;;;;;10.25;4.32;;;;;;;13.53;100.00;94547.91;10464983;28;20024;-73
2021/06/14 17:16:58;;;;;;;8.93;3.88;;;;;;;13.44;100.00;94555.09;10462948;28;20025;-72
2021/06/14 17:21:58;;;;;;;10.57;5.63;;;;;;;13.37;100.00;94562.75;10459977;28;20032;-72
2021/06/14 17:26:59;;;;;;;13.10;4.97;;;;;;;13.49;100.00;94573.91;10476149;28;20085;-73
2021/06/14 17:31:59;;;;;;;9.85;5.20;;;;;;;13.59;100.00;94583.72;10468208;28;20109;-72
2021/06/14 17:37:00;;;;;;;18.60;5.65;;;;;;;13.64;100.00;94587.13;10466145;28;20039;-74
2021/06/14 17:42:00;;;;;;;8.23;3.80;;;;;;;13.54;100.00;94600.81;10477012;28;20024;-72
2021/06/14 17:47:13;;;;;;;13.57;4.47;;;;;;;13.51;100.00;94609.53;10470485;28;20270;-72
2021/06/14 17:52:14;;;;;;;6.93;3.85;;;;;;;13.29;100.00;94623.59;10473164;28;20025;-71
2021/06/14 17:57:14;;;;;;;6.32;4.07;;;;;;;12.77;100.00;94656.66;10471327;28;20020;-72
2021/06/14 18:02:15;;;;;;;12.05;4.90;;;;;;;12.56;100.00;94669.59;10488831;28;20096;-73
2021/06/14 18:07:15;;;;;;;16.25;4.72;;;;;;;12.41;100.00;94694.81;10476114;28;20794;-72
2021/06/14 18:12:16;;;;;;;13.53;4.43;;;;;;;11.86;100.00;94705.78;10464486;28;20032;-72
2021/06/14 18:17:16;;;;;;;13.73;5.70;;;;;;;11.38;100.00;94721.72;10470129;28;20048;-72
2021/06/14 18:22:24;;;;;;;7.43;4.45;;;;;;;11.31;100.00;94730.09;10497870;28;20483;-72
2021/06/14 18:27:30;;;;;;;6.73;4.40;;;;;;;10.94;100.00;94734.06;10497377;28;20017;-72
2021/06/14 18:32:32;;;;;;;9.50;4.97;;;;;;;10.53;100.00;94734.97;10493770;28;20543;-72
2021/06/14 18:37:32;;;;;;;8.93;4.22;;;;;;;10.33;100.00;94741.16;10494457;28;20441;-72
2021/06/14 18:42:33;;;;;;;15.17;4.47;;;;;;;10.23;100.00;94747.38;10496649;28;20040;-72
2021/06/14 18:47:34;;;;;;;6.57;4.15;;;;;;;10.23;100.00;94757.31;10480853;28;20028;-72
2021/06/14 18:52:35;;;;;;;7.43;3.92;;;;;;;10.07;100.00;94751.94;10475133;28;20518;-72
2021/06/14 18:57:35;;;;;;;7.20;3.83;;;;;;;10.05;100.00;94748.72;10493118;28;20555;-72
2021/06/14 19:02:36;;;;;;;10.35;4.30;;;;;;;10.06;100.00;94758.38;10496390;28;20036;-72
2021/06/14 19:07:36;;;;;;;7.55;4.90;;;;;;;10.12;100.00;94761.06;10515683;28;20787;-73
2021/06/14 19:12:37;;;;;;;8.88;4.93;;;;;;;10.21;100.00;94767.50;10529625;28;20032;-72
2021/06/14 19:17:37;;;;;;;9.37;5.37;;;;;;;10.26;100.00;94772.88;10529112;28;20440;-73
2021/06/14 19:22:38;;;;;;;8.77;5.80;;;;;;;10.29;100.00;94788.44;10529408;28;20027;-72
2021/06/14 19:27:38;;;;;;;7.47;5.00;;;;;;;10.50;100.00;94796.53;10531692;28;20063;-73
2021/06/14 19:32:39;;;;;;;8.32;5.95;;;;;;;10.56;100.00;94803.50;10529906;28;20530;-73
2021/06/14 19:37:40;;;;;;;12.18;5.32;;;;;;;10.42;100.00;94804.06;10532216;28;20028;-73
2021/06/14 19:42:42;;;;;;;8.35;5.35;;;;;;;10.35;100.00;94805.41;10531251;28;20039;-73
2021/06/14 19:47:44;;;;;;;7.55;5.03;;;;;;;10.33;100.00;94819.06;10501216;28;20050;-73
2021/06/14 19:52:44;;;;;;;8.35;4.75;;;;;;;10.30;100.00;94826.84;10502005;28;20039;-73
2021/06/14 19:57:46;;;;;;;7.22;4.82;;;;;;;10.30;100.00;94827.69;10531253;28;20031;-73
2021/06/14 20:02:47;;;;;;;10.40;5.57;;;;;;;10.31;100.00;94831.16;10531068;28;20039;-73
2021/06/14 20:07:48;;;;;;;6.28;4.70;;;;;;;10.33;100.00;94827.13;10530588;28;20028;-73
2021/06/14 20:12:52;;;;;;;7.90;4.93;;;;;;;10.14;100.00;94820.69;10530668;28;20554;-73
2021/06/14 20:17:53;;;;;;;10.70;4.82;;;;;;;9.95;100.00;94815.03;10529762;28;20063;-73
2021/06/14 20:22:54;;;;;;;7.93;5.30;;;;;;;9.81;100.00;94815.56;10529664;28;20114;-73
2021/06/14 20:27:55;;;;;;;8.20;5.25;;;;;;;9.77;100.00;94805.59;10528222;28;20174;-73
2021/06/14 20:32:55;;;;;;;9.37;4.90;;;;;;;9.78;100.00;94801.84;10529347;28;20132;-73
2021/06/14 20:37:56;;;;;;;6.13;4.80;;;;;;;9.82;100.00;94801.03;10530262;28;20020;-73
2021/06/14 20:42:56;;;;;;;7.37;4.57;;;;;;;9.85;100.00;94797.03;10529573;28;21080;-73
2021/06/14 20:47:57;;;;;;;10.88;4.50;;;;;;;9.89;100.00;94796.25;10520770;28;20024;-73
2021/06/14 20:52:58;;;;;;;6.43;5.13;;;;;;;9.95;100.00;94810.47;10486687;28;20040;-73
2021/06/14 20:57:58;;;;;;;5.33;4.77;;;;;;;10.11;100.00;94810.47;10487144;28;20398;-73
2021/06/14 21:02:58;;;;;;;11.17;5.07;;;;;;;10.20;100.00;94814.22;10486079;28;20301;-73
2021/06/14 21:07:59;;;;;;;7.55;5.22;;;;;;;10.27;100.00;94806.72;10496007;28;20024;-73
2021/06/14 21:12:59;;;;;;;5.87;4.53;;;;;;;10.32;100.00;94804.03;10487116;28;20024;-73
2021/06/14 21:17:59;;;;;;;6.97;4.50;;;;;;;10.36;100.00;94801.66;10487066;28;20298;-73
2021/06/14 21:23:00;;;;;;;6.18;4.53;;;;;;;10.51;100.00;94793.56;10499839;28;20043;-73
2021/06/14 21:28:00;;;;;;;6.15;4.15;;;;;;;10.57;100.00;94791.69;10500676;28;20028;-73
2021/06/14 21:33:02;;;;;;;7.23;4.77;;;;;;;10.66;100.00;94787.38;10503413;28;20059;-73
2021/06/14 21:38:03;;;;;;;9.45;4.15;;;;;;;10.70;100.00;94775.00;10539898;28;20040;-73
2021/06/14 21:43:03;;;;;;;5.10;4.05;;;;;;;10.64;100.00;94765.31;10543476;28;20088;-74
2021/06/14 21:48:04;;;;;;;6.95;4.82;;;;;;;10.67;100.00;94769.34;10541487;28;20523;-74
2021/06/14 21:53:04;;;;;;;9.52;4.55;;;;;;;10.69;100.00;94765.31;10541199;28;20169;-74
2021/06/14 21:58:05;;;;;;;8.97;4.90;;;;;;;10.77;100.00;94759.38;10545544;28;20035;-73
2021/06/14 22:03:05;;;;;;;6.25;3.95;;;;;;;10.72;100.00;94759.38;10543628;28;20285;-74
2021/06/14 22:08:06;;;;;;;5.53;4.03;;;;;;;10.65;100.00;94764.25;10542191;28;20036;-74
2021/06/14 22:13:10;;;;;;;9.88;5.30;;;;;;;10.52;100.00;94762.94;10543962;28;20024;-74
2021/06/14 22:18:11;;;;;;;7.90;4.97;;;;;;;10.23;100.00;94762.69;10524582;28;20039;-74
2021/06/14 22:23:11;;;;;;;7.77;5.47;;;;;;;10.17;100.00;94767.25;10513783;28;20467;-74
2021/06/14 22:28:11;;;;;;;8.07;4.73;;;;;;;10.26;100.00;94772.88;10534608;28;20654;-73
2021/06/14 22:33:12;;;;;;;7.53;5.00;;;;;;;10.37;100.00;94774.50;10534040;28;20909;-74
2021/06/14 22:38:12;;;;;;;7.10;4.70;;;;;;;10.43;100.00;94767.25;10534745;28;20286;-73
2021/06/14 22:43:13;;;;;;;5.73;4.27;;;;;;;10.36;100.00;94767.53;10533615;28;20314;-74
2021/06/14 22:48:13;;;;;;;5.45;3.92;;;;;;;10.35;100.00;94767.78;10527258;28;20288;-73
2021/06/14 22:53:15;;;;;;;8.60;5.53;;;;;;;10.20;100.00;94764.03;10532308;28;20036;-74
2021/06/14 22:58:17;;;;;;;7.22;4.57;;;;;;;10.06;100.00;94769.13;10534490;28;20796;-73
2021/06/14 23:03:17;;;;;;;6.78;4.75;;;;;;;9.96;100.00;94769.13;10534165;28;20107;-73
2021/06/14 23:08:17;;;;;;;10.00;5.27;;;;;;;10.09;100.00;94779.31;10533086;28;20379;-73
2021/06/14 23:13:18;;;;;;;9.07;4.50;;;;;;;10.09;100.00;94778.53;10534022;28;20911;-74
2021/06/14 23:18:18;;;;;;;9.10;4.90;;;;;;;10.08;100.00;94769.66;10532901;28;20372;-73